createdAt,value
2019-03-18T00:00:18.016Z,9.40
2019-03-18T00:02:46.725Z,9.40
2019-03-18T00:05:16.407Z,9.40
2019-03-18T00:07:45.122Z,9.40
2019-03-18T00:10:13.882Z,9.30
2019-03-18T00:12:42.561Z,9.30
2019-03-18T00:15:11.301Z,9.30
2019-03-18T00:17:40.107Z,9.30
2019-03-18T00:20:10.226Z,9.30
2019-03-18T00:22:38.959Z,9.30
2019-03-18T00:25:12.261Z,9.30
2019-03-18T00:27:40.968Z,9.20
2019-03-18T00:30:14.838Z,9.20
2019-03-18T00:32:44.570Z,9.20
2019-03-18T00:35:13.276Z,9.10
2019-03-18T00:37:42.013Z,9.00
2019-03-18T00:40:15.150Z,8.90
2019-03-18T00:42:43.721Z,8.90
2019-03-18T00:45:15.034Z,8.90
2019-03-18T00:47:42.831Z,8.80
2019-03-18T00:50:16.206Z,8.80
2019-03-18T00:52:45.019Z,8.80
2019-03-18T00:55:13.717Z,8.70
2019-03-18T00:57:42.357Z,8.70
2019-03-18T01:00:17.828Z,8.60
2019-03-18T01:02:49.429Z,8.50
2019-03-18T01:05:18.439Z,8.40
2019-03-18T01:07:47.065Z,8.30
2019-03-18T01:10:16.888Z,8.30
2019-03-18T01:12:45.467Z,8.30
2019-03-18T01:15:26.828Z,8.30
2019-03-18T01:17:44.748Z,8.40
2019-03-18T01:20:14.239Z,8.40
2019-03-18T01:22:42.944Z,8.40
2019-03-18T01:25:12.605Z,8.40
2019-03-18T01:27:41.549Z,8.40
2019-03-18T01:30:12.345Z,8.40
2019-03-18T01:32:40.911Z,8.50
2019-03-18T01:35:11.024Z,8.50
2019-03-18T01:37:39.717Z,8.50
2019-03-18T01:40:11.351Z,8.50
2019-03-18T01:42:40.054Z,8.50
2019-03-18T01:45:10.200Z,8.50
2019-03-18T01:47:38.704Z,8.50
2019-03-18T01:50:10.381Z,8.50
2019-03-18T01:52:39.355Z,8.50
2019-03-18T01:55:08.050Z,8.50
2019-03-18T01:57:36.685Z,8.50
2019-03-18T02:00:13.652Z,8.50
2019-03-18T02:02:42.342Z,8.50
2019-03-18T02:05:11.268Z,8.50
2019-03-18T02:07:39.911Z,8.50
2019-03-18T02:10:13.507Z,8.50
2019-03-18T02:12:42.070Z,8.50
2019-03-18T02:15:12.467Z,8.50
2019-03-18T02:17:41.086Z,8.50
2019-03-18T02:20:12.255Z,8.50
2019-03-18T02:22:40.892Z,8.50
2019-03-18T02:25:10.518Z,8.40
2019-03-18T02:27:40.036Z,8.40
2019-03-18T02:30:18.926Z,8.40
2019-03-18T02:32:47.901Z,8.30
2019-03-18T02:35:16.583Z,8.30
2019-03-18T02:37:45.279Z,8.30
2019-03-18T02:40:14.068Z,8.30
2019-03-18T02:42:42.666Z,8.30
2019-03-18T02:45:11.788Z,8.30
2019-03-18T02:47:40.427Z,8.30
2019-03-18T02:50:09.872Z,8.20
2019-03-18T02:52:38.412Z,8.20
2019-03-18T02:55:08.430Z,8.20
2019-03-18T02:57:37.094Z,8.20
2019-03-18T03:00:11.384Z,8.20
2019-03-18T03:02:39.960Z,8.10
2019-03-18T03:05:10.685Z,8.00
2019-03-18T03:07:39.251Z,8.00
2019-03-18T03:10:13.625Z,7.90
2019-03-18T03:12:42.415Z,7.90
2019-03-18T03:15:12.867Z,7.90
2019-03-18T03:17:44.727Z,7.90
2019-03-18T03:20:13.345Z,7.80
2019-03-18T03:22:41.934Z,7.80
2019-03-18T03:25:11.163Z,7.80
2019-03-18T03:27:39.744Z,7.80
2019-03-18T03:30:17.172Z,7.80
2019-03-18T03:32:45.738Z,7.80
2019-03-18T03:35:14.494Z,7.80
2019-03-18T03:37:43.262Z,7.70
2019-03-18T03:40:12.662Z,7.80
2019-03-18T03:42:41.309Z,7.70
2019-03-18T03:45:12.305Z,7.70
2019-03-18T03:47:40.876Z,7.60
2019-03-18T03:50:14.477Z,7.60
2019-03-18T03:52:43.040Z,7.60
2019-03-18T03:55:12.644Z,7.50
2019-03-18T03:57:41.662Z,7.60
2019-03-18T04:00:14.533Z,7.60
2019-03-18T04:02:43.159Z,7.60
2019-03-18T04:05:12.904Z,7.60
2019-03-18T04:07:41.551Z,7.70
2019-03-18T04:10:11.655Z,7.70
2019-03-18T04:12:40.283Z,7.70
2019-03-18T04:15:11.370Z,7.70
2019-03-18T04:17:40.006Z,7.70
2019-03-18T04:20:16.283Z,7.70
2019-03-18T04:22:44.924Z,7.70
2019-03-18T04:25:13.902Z,7.70
2019-03-18T04:27:42.493Z,7.70
2019-03-18T04:30:15.617Z,7.70
2019-03-18T04:32:44.255Z,7.70
2019-03-18T04:35:12.867Z,7.70
2019-03-18T04:37:41.447Z,7.70
2019-03-18T04:40:11.586Z,7.70
2019-03-18T04:42:42.179Z,7.70
2019-03-18T04:45:11.040Z,7.70
2019-03-18T05:05:00.616Z,7.50
2019-03-18T05:07:29.202Z,7.60
2019-03-18T05:09:58.119Z,7.60
2019-03-18T05:12:27.708Z,7.60
2019-03-18T05:14:56.311Z,7.70
2019-03-18T05:17:26.950Z,7.60
2019-03-18T05:19:55.514Z,7.60
2019-03-18T05:22:24.095Z,7.70
2019-03-18T05:24:52.999Z,7.70
2019-03-18T05:27:21.625Z,7.80
2019-03-18T05:29:50.174Z,7.80
2019-03-18T05:32:18.756Z,7.80
2019-03-18T05:34:48.276Z,7.80
2019-03-18T05:37:16.881Z,7.80
2019-03-18T05:39:45.471Z,7.80
2019-03-18T05:42:15.095Z,7.90
2019-03-18T05:44:43.667Z,7.90
2019-03-18T05:47:12.277Z,7.90
2019-03-18T05:49:40.843Z,8.00
2019-03-18T05:52:09.408Z,8.00
2019-03-18T05:54:38.032Z,8.00
2019-03-18T05:57:06.618Z,8.10
2019-03-18T05:59:35.170Z,8.10
2019-03-18T06:02:03.759Z,8.10
2019-03-18T06:04:32.659Z,8.10
2019-03-18T06:07:01.215Z,8.10
2019-03-18T06:09:29.961Z,8.20
2019-03-18T06:11:58.548Z,8.20
2019-03-18T06:14:27.186Z,8.30
2019-03-18T06:16:56.661Z,8.40
2019-03-18T06:19:25.289Z,8.50
2019-03-18T06:21:53.891Z,8.60
2019-03-18T06:24:22.458Z,8.60
2019-03-18T06:26:51.969Z,8.70
2019-03-18T06:29:20.585Z,8.70
2019-03-18T06:31:51.133Z,8.70
2019-03-18T06:34:19.728Z,8.90
2019-03-18T06:36:50.292Z,9.00
2019-03-18T06:39:18.857Z,9.20
2019-03-18T06:41:47.481Z,9.20
2019-03-18T06:44:16.042Z,9.20
2019-03-18T06:46:44.705Z,9.10
2019-03-18T06:49:13.795Z,9.10
2019-03-18T06:51:42.367Z,9.20
2019-03-18T06:54:11.268Z,9.20
2019-03-18T06:56:39.859Z,9.30
2019-03-18T06:59:08.420Z,9.40
2019-03-18T07:01:39.766Z,9.30
2019-03-18T07:04:08.340Z,9.40
2019-03-18T07:06:36.918Z,9.50
2019-03-18T07:09:06.662Z,9.60
2019-03-18T07:11:35.225Z,9.80
2019-03-18T07:14:04.221Z,10.00
2019-03-18T07:16:32.887Z,10.00
2019-03-18T07:19:01.490Z,10.00
2019-03-18T07:21:30.065Z,10.10
2019-03-18T07:23:58.724Z,10.30
2019-03-18T07:26:27.358Z,10.50
2019-03-18T07:28:55.929Z,10.80
2019-03-18T07:31:24.513Z,11.30
2019-03-18T07:33:55.131Z,11.70
2019-03-18T07:36:23.707Z,12.00
2019-03-18T07:38:52.365Z,12.00
2019-03-18T07:41:21.094Z,11.90
2019-03-18T07:43:50.084Z,11.70
2019-03-18T07:46:18.665Z,11.60
2019-03-18T07:48:47.277Z,11.50
2019-03-18T07:51:15.837Z,11.40
2019-03-18T07:53:45.355Z,11.40
2019-03-18T07:56:13.949Z,11.60
2019-03-18T07:58:42.549Z,12.10
2019-03-18T08:01:11.197Z,12.40
2019-03-18T08:03:39.795Z,12.60
2019-03-18T08:06:08.387Z,13.00
2019-03-18T08:08:37.047Z,13.20
2019-03-18T08:11:05.726Z,13.80
2019-03-18T08:13:36.287Z,14.00
2019-03-18T08:16:04.934Z,14.90
2019-03-18T08:18:42.669Z,16.50
2019-03-18T08:21:04.165Z,18.10
2019-03-18T08:23:32.789Z,19.30
2019-03-18T08:26:01.355Z,20.80
2019-03-18T08:28:29.920Z,22.00
2019-03-18T08:30:58.482Z,21.90
2019-03-18T08:33:28.004Z,21.20
2019-03-18T08:35:56.614Z,20.10
2019-03-18T08:38:25.172Z,19.00
2019-03-18T08:40:53.756Z,17.90
2019-03-18T08:43:22.367Z,16.80
2019-03-18T08:45:50.957Z,16.00
2019-03-18T08:48:19.529Z,15.40
2019-03-18T08:50:48.125Z,15.20
2019-03-18T08:53:16.711Z,15.00
2019-03-18T08:55:46.269Z,15.10
2019-03-18T08:58:14.922Z,15.20
2019-03-18T09:00:43.496Z,15.00
2019-03-18T09:03:12.108Z,15.20
2019-03-18T09:05:40.797Z,15.40
2019-03-18T09:08:09.383Z,15.70
2019-03-18T09:10:37.965Z,15.70
2019-03-18T09:13:06.565Z,16.00
2019-03-18T09:15:35.142Z,16.00
2019-03-18T09:18:03.788Z,15.70
2019-03-18T09:20:32.390Z,15.50
2019-03-18T09:23:01.605Z,15.40
2019-03-18T09:25:30.470Z,15.10
2019-03-18T09:27:59.194Z,14.80
2019-03-18T09:30:27.725Z,14.50
2019-03-18T09:32:56.361Z,14.40
2019-03-18T09:35:24.913Z,14.40
2019-03-18T09:37:53.868Z,14.50
2019-03-18T09:40:22.642Z,14.50
2019-03-18T09:42:51.213Z,14.50
2019-03-18T09:45:20.048Z,14.40
2019-03-18T09:47:48.614Z,14.40
2019-03-18T09:50:17.260Z,14.30
2019-03-18T09:52:45.880Z,14.20
2019-03-18T09:55:14.532Z,14.10
2019-03-18T09:57:43.401Z,14.10
2019-03-18T10:00:15.909Z,14.20
2019-03-18T10:02:43.762Z,14.30
2019-03-18T10:05:12.388Z,14.40
2019-03-18T10:07:41.081Z,14.30
2019-03-18T10:10:11.289Z,14.20
2019-03-18T10:12:39.857Z,14.20
2019-03-18T10:15:14.359Z,14.00
2019-03-18T10:17:42.932Z,13.70
2019-03-18T10:20:11.723Z,13.50
2019-03-18T10:22:40.353Z,13.40
2019-03-18T10:25:09.359Z,13.40
2019-03-18T10:27:38.170Z,13.60
2019-03-18T10:30:15.114Z,13.60
2019-03-18T10:32:43.663Z,13.70
2019-03-18T10:35:12.411Z,13.70
2019-03-18T10:37:41.032Z,13.60
2019-03-18T10:40:11.798Z,13.60
2019-03-18T10:42:40.395Z,13.70
2019-03-18T10:45:13.079Z,13.80
2019-03-18T10:47:41.861Z,13.90
2019-03-18T10:50:12.946Z,13.80
2019-03-18T10:52:41.547Z,13.90
2019-03-18T10:55:10.601Z,14.00
2019-03-18T10:57:39.214Z,14.10
2019-03-18T11:00:14.009Z,14.20
2019-03-18T11:02:45.116Z,14.40
2019-03-18T11:05:13.352Z,14.40
2019-03-18T11:07:41.941Z,14.40
2019-03-18T11:10:12.868Z,14.30
2019-03-18T11:12:41.668Z,14.20
2019-03-18T11:15:13.292Z,14.20
2019-03-18T11:17:41.879Z,14.10
2019-03-18T11:20:12.812Z,14.00
2019-03-18T11:22:41.611Z,13.90
2019-03-18T11:25:12.098Z,13.90
2019-03-18T11:27:40.773Z,13.70
2019-03-18T11:30:17.440Z,13.60
2019-03-18T11:32:46.005Z,13.60
2019-03-18T11:35:14.600Z,13.50
2019-03-18T11:37:43.280Z,13.40
2019-03-18T11:40:16.604Z,13.50
2019-03-18T11:42:45.137Z,13.50
2019-03-18T11:45:15.487Z,13.50
2019-03-18T11:47:44.139Z,13.40
2019-03-18T11:50:13.968Z,13.10
2019-03-18T11:52:42.728Z,13.00
2019-03-18T11:55:19.512Z,12.90
2019-03-18T11:57:48.178Z,12.80
2019-03-18T12:00:22.490Z,12.70
2019-03-18T12:02:51.128Z,12.70
2019-03-18T12:05:24.709Z,12.60
2019-03-18T12:07:53.391Z,12.60
2019-03-18T12:10:25.158Z,12.80
2019-03-18T12:12:52.318Z,12.90
2019-03-18T12:15:26.126Z,13.00
2019-03-18T12:17:55.172Z,12.90
2019-03-18T12:20:25.484Z,12.80
2019-03-18T12:22:54.277Z,12.70
2019-03-18T12:25:22.883Z,12.60
2019-03-18T12:27:52.509Z,12.60
2019-03-18T12:30:22.529Z,12.60
2019-03-18T12:32:51.195Z,12.60
2019-03-18T12:35:19.817Z,12.60
2019-03-18T12:37:48.637Z,12.50
2019-03-18T12:40:17.754Z,12.40
2019-03-18T12:42:46.587Z,12.30
2019-03-18T12:45:17.551Z,12.30
2019-03-18T12:47:46.122Z,12.20
2019-03-18T12:50:36.470Z,12.30
2019-03-18T12:52:50.123Z,12.40
2019-03-18T12:55:18.781Z,12.40
2019-03-18T12:57:47.693Z,12.40
2019-03-18T13:00:24.743Z,12.40
2019-03-18T13:02:53.356Z,12.20
2019-03-18T13:05:22.078Z,12.10
2019-03-18T13:07:50.706Z,12.10
2019-03-18T13:10:21.872Z,12.10
2019-03-18T13:12:50.856Z,12.10
2019-03-18T13:15:20.163Z,12.10
2019-03-18T13:17:48.834Z,12.10
2019-03-18T13:20:18.745Z,12.00
2019-03-18T13:22:47.369Z,12.00
2019-03-18T13:25:16.081Z,12.00
2019-03-18T13:27:44.719Z,12.10
2019-03-18T13:30:17.918Z,12.20
2019-03-18T13:32:46.942Z,12.20
2019-03-18T13:35:15.670Z,12.20
2019-03-18T13:37:44.421Z,12.20
2019-03-18T13:40:14.541Z,12.30
2019-03-18T13:42:43.177Z,12.30
2019-03-18T13:45:20.982Z,12.30
2019-03-18T13:47:49.633Z,12.20
2019-03-18T13:50:22.216Z,12.10
2019-03-18T13:52:50.172Z,12.10
2019-03-18T13:55:18.926Z,12.00
2019-03-18T13:57:47.605Z,12.00
2019-03-18T14:00:20.017Z,12.00
2019-03-18T14:02:48.687Z,12.00
2019-03-18T14:05:17.357Z,11.90
2019-03-18T14:07:58.838Z,11.90
2019-03-18T14:10:23.555Z,11.90
2019-03-18T14:12:52.136Z,11.80
2019-03-18T14:15:21.963Z,11.80
2019-03-18T14:17:50.670Z,11.80
2019-03-18T14:20:21.838Z,11.80
2019-03-18T14:22:50.463Z,11.70
2019-03-18T14:25:19.049Z,11.70
2019-03-18T14:27:47.671Z,11.70
2019-03-18T14:30:20.646Z,11.70
2019-03-18T14:32:49.280Z,11.70
2019-03-18T14:35:21.674Z,11.70
2019-03-18T14:37:48.239Z,11.70
2019-03-18T14:40:18.738Z,11.60
2019-03-18T14:42:47.385Z,11.60
2019-03-18T14:45:18.517Z,11.60
2019-03-18T14:47:47.200Z,11.50
2019-03-18T14:50:16.939Z,11.30
2019-03-18T14:52:45.563Z,11.20
2019-03-18T14:55:17.699Z,11.10
2019-03-18T14:57:46.341Z,11.00
2019-03-18T15:00:25.785Z,10.90
2019-03-18T15:02:54.408Z,10.90
2019-03-18T15:05:23.034Z,10.80
2019-03-18T15:07:51.583Z,10.70
2019-03-18T15:10:22.807Z,10.70
2019-03-18T15:12:51.374Z,10.70
2019-03-18T15:15:20.393Z,10.70
2019-03-18T15:17:49.034Z,10.60
2019-03-18T15:20:23.463Z,10.60
2019-03-18T15:22:52.408Z,10.50
2019-03-18T15:25:22.982Z,10.40
2019-03-18T15:27:51.564Z,10.30
2019-03-18T15:30:23.163Z,10.30
2019-03-18T15:32:51.749Z,10.20
2019-03-18T15:35:20.458Z,10.10
2019-03-18T15:37:49.064Z,10.10
2019-03-18T15:40:26.017Z,10.00
2019-03-18T15:42:54.657Z,10.00
2019-03-18T15:45:23.587Z,9.90
2019-03-18T15:47:52.324Z,9.80
2019-03-18T15:50:23.402Z,9.70
2019-03-18T15:52:53.038Z,9.60
2019-03-18T15:55:24.145Z,9.50
2019-03-18T15:57:53.749Z,9.40
2019-03-18T16:00:30.474Z,9.40
2019-03-18T16:02:59.615Z,9.40
2019-03-18T16:05:29.211Z,9.40
2019-03-18T16:07:57.833Z,9.40
2019-03-18T16:10:26.385Z,9.40
2019-03-18T16:12:54.952Z,9.40
2019-03-18T16:15:23.617Z,9.40
2019-03-18T16:17:52.188Z,9.50
2019-03-18T16:20:24.546Z,9.50
2019-03-18T16:22:53.192Z,9.50
2019-03-18T16:25:21.815Z,9.50
2019-03-18T16:27:50.720Z,9.50
2019-03-18T16:30:20.459Z,9.50
2019-03-18T16:32:49.140Z,9.60
2019-03-18T16:35:18.165Z,9.50
2019-03-18T16:37:46.759Z,9.40
2019-03-18T16:40:19.499Z,9.30
2019-03-18T16:42:48.187Z,9.10
2019-03-18T16:45:17.810Z,9.00
2019-03-18T16:47:46.854Z,8.90
2019-03-18T16:50:21.010Z,8.70
2019-03-18T16:52:49.714Z,8.60
2019-03-18T16:55:18.400Z,8.50
2019-03-18T16:57:47.474Z,8.40
2019-03-18T17:00:18.753Z,8.40
2019-03-18T17:02:47.440Z,8.30
2019-03-18T17:05:16.092Z,8.30
2019-03-18T17:07:44.880Z,8.20
2019-03-18T17:10:14.542Z,8.20
2019-03-18T17:12:43.169Z,8.10
2019-03-18T17:15:19.844Z,8.10
2019-03-18T17:17:48.401Z,8.00
2019-03-18T17:20:17.576Z,8.00
2019-03-18T17:22:50.425Z,8.00
2019-03-18T17:25:22.112Z,8.00
2019-03-18T17:27:50.756Z,7.90
2019-03-18T17:30:20.167Z,7.90
2019-03-18T17:32:48.720Z,7.90
2019-03-18T17:35:17.328Z,7.90
2019-03-18T17:37:45.938Z,7.90
2019-03-18T17:40:15.838Z,7.80
2019-03-18T17:42:44.553Z,7.80
2019-03-18T17:45:18.155Z,7.70
2019-03-18T17:47:46.774Z,7.70
2019-03-18T17:50:27.417Z,7.70
2019-03-18T17:53:03.005Z,7.60
2019-03-18T17:55:26.277Z,7.60
2019-03-18T17:57:54.878Z,7.60
2019-03-18T18:00:25.085Z,7.50
2019-03-18T18:02:53.668Z,7.50
2019-03-18T18:05:22.315Z,7.50
2019-03-18T18:07:50.815Z,7.40
2019-03-18T18:10:19.557Z,7.40
2019-03-18T18:12:48.237Z,7.40
2019-03-18T18:15:16.787Z,7.40
2019-03-18T18:17:45.478Z,7.30
2019-03-18T18:20:15.278Z,7.40
2019-03-18T18:22:44.038Z,7.40
2019-03-18T18:25:14.616Z,7.40
2019-03-18T18:27:43.257Z,7.30
2019-03-18T18:30:16.742Z,7.30
2019-03-18T18:32:52.250Z,7.30
2019-03-18T18:35:20.852Z,7.30
2019-03-18T18:37:49.464Z,7.30
2019-03-18T18:40:20.305Z,7.30
2019-03-18T18:42:48.998Z,7.20
2019-03-18T18:45:17.499Z,7.20
2019-03-18T18:47:46.434Z,7.20
2019-03-18T18:50:15.350Z,7.20
2019-03-18T18:52:43.927Z,7.10
2019-03-18T18:55:14.522Z,7.10
2019-03-18T18:57:43.098Z,7.00
2019-03-18T19:00:18.858Z,7.00
2019-03-18T19:02:47.523Z,7.00
2019-03-18T19:05:16.938Z,6.90
2019-03-18T19:07:45.883Z,6.90
2019-03-18T19:10:16.765Z,6.90
2019-03-18T19:12:45.425Z,6.80
2019-03-18T19:15:29.750Z,6.80
2019-03-18T19:17:58.301Z,6.80
2019-03-18T19:20:26.900Z,6.70
2019-03-18T19:22:55.470Z,6.70
2019-03-18T19:25:24.153Z,6.70
2019-03-18T19:27:53.688Z,6.70
2019-03-18T19:30:23.195Z,6.60
2019-03-18T19:32:52.364Z,6.60
2019-03-18T19:35:20.936Z,6.60
2019-03-18T19:37:49.632Z,6.50
2019-03-18T19:40:22.703Z,6.50
2019-03-18T19:42:53.923Z,6.40
2019-03-18T19:45:22.520Z,6.40
2019-03-18T19:47:53.202Z,6.30
2019-03-18T19:50:23.557Z,6.30
2019-03-18T19:52:52.126Z,6.30
2019-03-18T19:55:20.833Z,6.20
2019-03-18T19:57:49.505Z,6.20
2019-03-18T20:00:22.685Z,6.20
2019-03-18T20:02:52.456Z,6.10
2019-03-18T20:05:21.145Z,6.00
2019-03-18T20:07:49.798Z,6.00
2019-03-18T20:10:19.931Z,5.90
2019-03-18T20:12:48.584Z,5.90
2019-03-18T20:15:19.157Z,5.80
2019-03-18T20:17:48.054Z,5.80
2019-03-18T20:20:19.765Z,5.70
2019-03-18T20:22:48.328Z,5.70
2019-03-18T20:25:17.044Z,5.70
2019-03-18T20:27:45.740Z,5.60
2019-03-18T20:30:21.103Z,5.60
2019-03-18T20:32:49.796Z,5.60
2019-03-18T20:35:22.039Z,5.50
2019-03-18T20:37:52.022Z,5.50
2019-03-18T20:40:21.196Z,5.50
2019-03-18T20:42:49.768Z,5.40
2019-03-18T20:45:20.367Z,5.40
2019-03-18T20:47:49.076Z,5.40
2019-03-18T20:50:18.742Z,5.40
2019-03-18T20:52:47.440Z,5.40
2019-03-18T20:55:16.441Z,5.40
2019-03-18T20:57:45.110Z,5.40
2019-03-18T21:00:16.855Z,5.30
2019-03-18T21:02:45.508Z,5.30
2019-03-18T21:05:14.254Z,5.30
2019-03-18T21:07:42.976Z,5.30
2019-03-18T21:10:16.618Z,5.20
2019-03-18T21:12:46.252Z,5.20
2019-03-18T21:15:17.187Z,5.20
2019-03-18T21:17:45.825Z,5.20
2019-03-18T21:20:18.332Z,5.10
2019-03-18T21:22:47.228Z,5.10
2019-03-18T21:25:15.927Z,5.10
2019-03-18T21:27:44.517Z,5.10
2019-03-18T21:30:15.538Z,5.10
2019-03-18T21:32:44.218Z,5.10
2019-03-18T21:35:12.981Z,5.00
2019-03-18T21:37:41.854Z,5.00
2019-03-18T21:40:20.654Z,5.00
2019-03-18T21:42:49.330Z,5.00
2019-03-18T21:45:23.632Z,4.90
2019-03-18T21:47:53.153Z,4.90
2019-03-18T21:50:23.737Z,4.90
2019-03-18T21:52:52.301Z,4.80
2019-03-18T21:55:20.950Z,4.80
2019-03-18T21:57:49.665Z,4.80
2019-03-18T22:00:19.395Z,4.80
2019-03-18T22:02:48.059Z,4.80
2019-03-18T22:05:16.717Z,4.80
2019-03-18T22:07:45.339Z,4.80
2019-03-18T22:10:18.618Z,4.80
2019-03-18T22:12:47.413Z,4.80
2019-03-18T22:15:16.656Z,4.80
2019-03-18T22:17:45.372Z,4.70
2019-03-18T22:20:16.366Z,4.70
2019-03-18T22:22:45.076Z,4.70
2019-03-18T22:25:14.528Z,4.70
2019-03-18T22:27:45.291Z,4.70
2019-03-18T22:30:17.919Z,4.70
2019-03-18T22:32:46.840Z,4.70
2019-03-18T22:35:15.612Z,4.70
2019-03-18T22:37:44.655Z,4.70
2019-03-18T22:40:15.878Z,4.70
2019-03-18T22:42:44.511Z,4.70
2019-03-18T22:45:15.209Z,4.80
2019-03-18T22:47:44.172Z,4.90
2019-03-18T22:50:13.833Z,4.90
2019-03-18T22:52:42.397Z,4.90
2019-03-18T22:55:14.498Z,4.90
2019-03-18T22:57:43.124Z,4.90
2019-03-18T23:00:26.078Z,4.90
2019-03-18T23:02:54.779Z,4.90
2019-03-18T23:05:23.516Z,4.90
2019-03-18T23:07:52.227Z,4.90
2019-03-18T23:10:20.817Z,4.90
2019-03-18T23:12:49.516Z,5.00
2019-03-18T23:15:18.115Z,5.00
2019-03-18T23:17:46.690Z,5.00
2019-03-18T23:20:15.315Z,5.00
2019-03-18T23:22:43.944Z,4.90
2019-03-18T23:25:12.632Z,4.90
2019-03-18T23:27:41.258Z,4.90
2019-03-18T23:30:11.981Z,4.90
2019-03-18T23:32:41.539Z,4.90
2019-03-18T23:35:15.948Z,4.90
2019-03-18T23:37:44.527Z,4.90
2019-03-18T23:40:13.969Z,4.80
2019-03-18T23:42:42.544Z,4.80
2019-03-18T23:45:12.051Z,4.80
2019-03-18T23:47:40.966Z,4.70
2019-03-18T23:50:12.169Z,4.70
2019-03-18T23:52:40.817Z,4.70
2019-03-18T23:55:18.135Z,4.60
2019-03-18T23:57:40.317Z,4.70
